EVY23 YSCB-YSCB
Flight info
| Callsign | EVY23 |
|---|---|
| Flight time | N/A |
| Altitude | 38000 |
| Route | TANTA Q29 NABBA/N0451F400 Q29 BOOIN/N0449F390 DCT ML DCT AV Q29 ML/N0456F400 H345 AD/N0451F390 V255 BENDO Y218 TYNDI Y53 ALAXO/N0369F190 W382 IGNES W15 AV W190 ML H129 DOSEL Y59 ARRAN |
| Aircraft | B38M/M-SADE2E3FGHIJ1J3J4J7M3P2RWXYZ/LB1D1 |
Departure
| Time | 2026-04-30 06:45 |
|---|---|
| Airport | Canberra Airport (YSCB) |
Arrival
| Time | N/A |
|---|---|
| Airport | Canberra Airport (YSCB) |
| Time | Latitude | Longitude | Altitude | Speed | Heading |
|---|---|---|---|---|---|
| 2026-04-30 06:07 | -35.30379 | 149.19959 | 1882 ft | 0 kts | 124° |
| 2026-04-30 06:39 | -35.30389 | 149.19974 | 1876 ft | 4 kts | 136° |
| 2026-04-30 06:39 | -35.30414 | 149.19966 | 1877 ft | 5 kts | 224° |
| 2026-04-30 06:39 | -35.30422 | 149.19914 | 1882 ft | 8 kts | 289° |
| 2026-04-30 06:40 | -35.30382 | 149.19839 | 1876 ft | 13 kts | 306° |
| 2026-04-30 06:40 | -35.30319 | 149.19731 | 1882 ft | 18 kts | 305° |
| 2026-04-30 06:40 | -35.30242 | 149.19592 | 1882 ft | 21 kts | 299° |
| 2026-04-30 06:40 | -35.30187 | 149.19412 | 1882 ft | 24 kts | 290° |
| 2026-04-30 06:41 | -35.30161 | 149.19263 | 1882 ft | 13 kts | 239° |
| 2026-04-30 06:41 | -35.30240 | 149.19238 | 1882 ft | 14 kts | 180° |
| 2026-04-30 06:41 | -35.30350 | 149.19238 | 1880 ft | 18 kts | 180° |
| 2026-04-30 06:41 | -35.30488 | 149.19238 | 1882 ft | 22 kts | 180° |
| 2026-04-30 06:42 | -35.30650 | 149.19238 | 1878 ft | 25 kts | 179° |
| 2026-04-30 06:42 | -35.30832 | 149.19239 | 1882 ft | 28 kts | 180° |
| 2026-04-30 06:42 | -35.31034 | 149.19239 | 1882 ft | 30 kts | 180° |
| 2026-04-30 06:42 | -35.31253 | 149.19239 | 1882 ft | 33 kts | 180° |
| 2026-04-30 06:43 | -35.31384 | 149.19242 | 1882 ft | 12 kts | 172° |
| 2026-04-30 06:43 | -35.31453 | 149.19295 | 1882 ft | 4 kts | 126° |
| 2026-04-30 06:43 | -35.31468 | 149.19343 | 1878 ft | 8 kts | 98° |
| 2026-04-30 06:43 | -35.31469 | 149.19423 | 1882 ft | 9 kts | 79° |
| 2026-04-30 06:44 | -35.31439 | 149.19445 | 1875 ft | 5 kts | 1° |
| 2026-04-30 06:44 | -35.31384 | 149.19445 | 1882 ft | 18 kts | 360° |
| 2026-04-30 06:44 | -35.30988 | 149.19444 | 1882 ft | 93 kts | 360° |
| 2026-04-30 06:44 | -35.30135 | 149.19440 | 1882 ft | 149 kts | 358° |
| 2026-04-30 06:45 | -35.29040 | 149.19450 | 2340 ft | 160 kts | 359° |
| 2026-04-30 06:45 | -35.27927 | 149.19457 | 3018 ft | 165 kts | 0° |
| 2026-04-30 06:45 | -35.26739 | 149.19465 | 3572 ft | 178 kts | 1° |
| 2026-04-30 06:45 | -35.25520 | 149.19135 | 3612 ft | 186 kts | 326° |
| 2026-04-30 06:46 | -35.24786 | 149.17844 | 3472 ft | 191 kts | 284° |
| 2026-04-30 06:46 | -35.24985 | 149.16286 | 3337 ft | 190 kts | 236° |
| 2026-04-30 06:46 | -35.26048 | 149.15374 | 3464 ft | 192 kts | 193° |
| 2026-04-30 06:46 | -35.27381 | 149.15288 | 3564 ft | 194 kts | 179° |
| 2026-04-30 06:47 | -35.28729 | 149.15315 | 3327 ft | 192 kts | 178° |
| 2026-04-30 06:47 | -35.30065 | 149.15368 | 3353 ft | 192 kts | 180° |
| 2026-04-30 06:47 | -35.31406 | 149.15370 | 3355 ft | 192 kts | 180° |
| 2026-04-30 06:47 | -35.32746 | 149.15363 | 3427 ft | 193 kts | 180° |
| 2026-04-30 06:48 | -35.34086 | 149.15348 | 3534 ft | 194 kts | 180° |
| 2026-04-30 06:48 | -35.35441 | 149.15328 | 3441 ft | 194 kts | 180° |
| 2026-04-30 06:48 | -35.36759 | 149.15518 | 3312 ft | 190 kts | 154° |
| 2026-04-30 06:48 | -35.37673 | 149.16571 | 3020 ft | 173 kts | 117° |
| 2026-04-30 06:49 | -35.37884 | 149.17916 | 2815 ft | 151 kts | 87° |
| 2026-04-30 06:49 | -35.37513 | 149.19052 | 2659 ft | 145 kts | 43° |
| 2026-04-30 06:49 | -35.36602 | 149.19482 | 2475 ft | 143 kts | 359° |
| 2026-04-30 06:49 | -35.35608 | 149.19427 | 2473 ft | 143 kts | 360° |
| 2026-04-30 06:50 | -35.34603 | 149.19447 | 2419 ft | 145 kts | 359° |
| 2026-04-30 06:50 | -35.33614 | 149.19449 | 2274 ft | 144 kts | 359° |
| 2026-04-30 06:50 | -35.32601 | 149.19451 | 2113 ft | 143 kts | 359° |
| 2026-04-30 06:50 | -35.31615 | 149.19448 | 1938 ft | 144 kts | 358° |
| 2026-04-30 06:51 | -35.30660 | 149.19449 | 1883 ft | 126 kts | 357° |
| 2026-04-30 06:51 | -35.29707 | 149.19444 | 2002 ft | 164 kts | 359° |
| 2026-04-30 06:51 | -35.28464 | 149.19454 | 2845 ft | 182 kts | 0° |
| 2026-04-30 06:51 | -35.27262 | 149.19476 | 3943 ft | 168 kts | 1° |
| 2026-04-30 06:52 | -35.26076 | 149.19494 | 4739 ft | 179 kts | 1° |
| 2026-04-30 06:52 | -35.24781 | 149.19451 | 5336 ft | 192 kts | 348° |
| 2026-04-30 06:52 | -35.23656 | 149.18722 | 6520 ft | 173 kts | 326° |
| 2026-04-30 06:52 | -35.22785 | 149.17590 | 7070 ft | 193 kts | 301° |
| 2026-04-30 06:53 | -35.22229 | 149.16083 | 7810 ft | 196 kts | 309° |
| 2026-04-30 06:53 | -35.21392 | 149.14707 | 8393 ft | 211 kts | 308° |
| 2026-04-30 06:53 | -35.20596 | 149.13155 | 9064 ft | 209 kts | 292° |
| 2026-04-30 06:53 | -35.20405 | 149.11446 | 9989 ft | 215 kts | 259° |
| 2026-04-30 06:54 | -35.21181 | 149.09821 | 10476 ft | 237 kts | 221° |
| 2026-04-30 06:54 | -35.22567 | 149.08601 | 11134 ft | 254 kts | 214° |
| 2026-04-30 06:54 | -35.24070 | 149.07312 | 11791 ft | 275 kts | 216° |
| 2026-04-30 06:54 | -35.25698 | 149.05918 | 12435 ft | 296 kts | 215° |
| 2026-04-30 06:55 | -35.27450 | 149.04430 | 13061 ft | 317 kts | 215° |
| 2026-04-30 06:55 | -35.29311 | 149.02859 | 13834 ft | 332 kts | 215° |
| 2026-04-30 06:55 | -35.31250 | 149.01229 | 14680 ft | 343 kts | 215° |